Time,TemperatureF,DewpointF,PressureIn,WindDirection,WindDirectionDegrees,WindSpeedMPH,WindSpeedGustMPH,Humidity,HourlyPrecipIn,Conditions,Clouds,dailyrainin,SoftwareType,DateUTC
2013-01-18 00:03:00,26.0,-99.9,-100.00,SW,227,4.0,5.0,-999,0.00,,,0.00,,2013-01-18 06:03:00,
2013-01-18 00:12:00,26.0,-99.9,-100.00,SW,227,4.0,5.0,-999,0.00,,,0.00,,2013-01-18 06:12:00,
2013-01-18 00:23:00,26.0,-99.9,-100.00,SW,227,4.0,5.0,-999,0.00,,,0.00,,2013-01-18 06:23:00,
2013-01-18 00:33:00,25.0,-99.9,-100.00,West,276,1.0,2.0,-999,0.00,,,0.00,,2013-01-18 06:33:00,
2013-01-18 00:43:00,25.0,-99.9,-100.00,West,276,1.0,2.0,-999,0.00,,,0.00,,2013-01-18 06:43:00,
2013-01-18 00:53:00,25.0,-99.9,-100.00,West,276,1.0,2.0,-999,0.00,,,0.00,,2013-01-18 06:53:00,
2013-01-18 01:00:00,27.0,-99.9,-100.00,WSW,249,2.0,2.0,-999,0.00,,,0.00,,2013-01-18 07:00:00,
2013-01-18 01:02:00,27.0,-99.9,-100.00,WSW,249,2.0,2.0,-999,0.00,,,0.00,,2013-01-18 07:02:00,
2013-01-18 01:12:00,27.0,-99.9,-100.00,WSW,249,2.0,2.0,-999,0.00,,,0.00,,2013-01-18 07:12:00,
2013-01-18 01:22:00,27.0,-99.9,-100.00,WSW,249,2.0,2.0,-999,0.00,,,0.00,,2013-01-18 07:22:00,
2013-01-18 01:33:00,27.0,-99.9,-100.00,WSW,249,2.0,2.0,-999,0.00,,,0.00,,2013-01-18 07:33:00,
2013-01-18 01:43:00,27.0,-99.9,-100.00,WSW,249,2.0,2.0,-999,0.00,,,0.00,,2013-01-18 07:43:00,
2013-01-18 01:53:00,27.0,-99.9,-100.00,WSW,249,2.0,2.0,-999,0.00,,,0.00,,2013-01-18 07:53:00,
2013-01-18 02:33:00,28.0,-99.9,-100.00,SSW,200,1.0,2.0,-999,0.00,,,0.00,,2013-01-18 08:33:00,
2013-01-18 02:43:00,28.0,-99.9,-100.00,SSW,200,1.0,2.0,-999,0.00,,,0.00,,2013-01-18 08:43:00,
2013-01-18 02:53:00,28.0,-99.9,-100.00,SSW,200,1.0,2.0,-999,0.00,,,0.00,,2013-01-18 08:53:00,
2013-01-18 03:03:00,27.0,-99.9,-100.00,SE,142,2.0,3.0,-999,0.00,,,0.00,,2013-01-18 09:03:00,
2013-01-18 03:12:00,27.0,-99.9,-100.00,SE,142,2.0,3.0,-999,0.00,,,0.00,,2013-01-18 09:12:00,
2013-01-18 03:22:00,27.0,-99.9,-100.00,SE,142,2.0,3.0,-999,0.00,,,0.00,,2013-01-18 09:22:00,
2013-01-18 03:33:00,27.0,-99.9,-100.00,SE,143,3.0,3.0,-999,0.00,,,0.00,,2013-01-18 09:33:00,
2013-01-18 03:43:00,27.0,-99.9,-100.00,SE,143,3.0,3.0,-999,0.00,,,0.00,,2013-01-18 09:43:00,
2013-01-18 03:53:00,27.0,-99.9,-100.00,SE,143,3.0,3.0,-999,0.00,,,0.00,,2013-01-18 09:53:00,
2013-01-18 04:03:00,28.0,-99.9,-100.00,SE,139,2.0,3.0,-999,0.00,,,0.00,,2013-01-18 10:03:00,
2013-01-18 04:12:00,28.0,-99.9,-100.00,SE,139,2.0,3.0,-999,0.00,,,0.00,,2013-01-18 10:12:00,
2013-01-18 04:22:00,28.0,-99.9,-100.00,SE,139,2.0,3.0,-999,0.00,,,0.00,,2013-01-18 10:22:00,
2013-01-18 04:33:00,27.0,-99.9,-100.00,SW,218,3.0,6.0,-999,0.00,,,0.00,,2013-01-18 10:33:00,
2013-01-18 04:43:00,27.0,-99.9,-100.00,SW,218,3.0,6.0,-999,0.00,,,0.00,,2013-01-18 10:43:00,
2013-01-18 04:53:00,27.0,-99.9,-100.00,SW,218,3.0,6.0,-999,0.00,,,0.00,,2013-01-18 10:53:00,
2013-01-18 05:03:00,27.0,-99.9,-100.00,SSE,165,3.0,6.0,-999,0.00,,,0.00,,2013-01-18 11:03:00,
2013-01-18 05:12:00,27.0,-99.9,-100.00,SSE,165,3.0,6.0,-999,0.00,,,0.00,,2013-01-18 11:12:00,
2013-01-18 05:23:00,27.0,-99.9,-100.00,SSE,165,3.0,6.0,-999,0.00,,,0.00,,2013-01-18 11:23:00,
2013-01-18 05:33:00,28.0,-99.9,-100.00,South,178,3.0,4.0,-999,0.00,,,0.00,,2013-01-18 11:33:00,
2013-01-18 05:43:00,28.0,-99.9,-100.00,South,178,3.0,4.0,-999,0.00,,,0.00,,2013-01-18 11:43:00,
2013-01-18 05:53:00,28.0,-99.9,-100.00,South,178,3.0,4.0,-999,0.00,,,0.00,,2013-01-18 11:53:00,
2013-01-18 06:03:00,29.0,-99.9,-100.00,South,179,4.0,10.0,-999,0.00,,,0.00,,2013-01-18 12:03:00,
2013-01-18 06:12:00,29.0,-99.9,-100.00,South,179,4.0,10.0,-999,0.00,,,0.00,,2013-01-18 12:12:00,
2013-01-18 06:23:00,29.0,-99.9,-100.00,South,179,4.0,10.0,-999,0.00,,,0.00,,2013-01-18 12:23:00,
2013-01-18 06:33:00,30.0,-99.9,-100.00,South,184,3.0,7.0,-999,0.00,,,0.00,,2013-01-18 12:33:00,
2013-01-18 06:43:00,30.0,-99.9,-100.00,South,184,3.0,7.0,-999,0.00,,,0.00,,2013-01-18 12:43:00,
2013-01-18 06:53:00,30.0,-99.9,-100.00,South,184,3.0,7.0,-999,0.00,,,0.00,,2013-01-18 12:53:00,
2013-01-18 07:03:00,31.0,-99.9,-100.00,SSW,192,4.0,9.0,-999,0.00,,,0.00,,2013-01-18 13:03:00,
2013-01-18 07:12:00,31.0,-99.9,-100.00,SSW,192,4.0,9.0,-999,0.00,,,0.00,,2013-01-18 13:12:00,
2013-01-18 07:23:00,31.0,-99.9,-100.00,SSW,192,4.0,9.0,-999,0.00,,,0.00,,2013-01-18 13:23:00,
2013-01-18 07:34:00,32.0,-99.9,-100.00,South,173,6.0,7.0,-999,0.00,,,0.00,,2013-01-18 13:34:00,
2013-01-18 07:43:00,32.0,-99.9,-100.00,South,173,6.0,7.0,-999,0.00,,,0.00,,2013-01-18 13:43:00,
2013-01-18 07:53:00,32.0,-99.9,-100.00,South,173,6.0,7.0,-999,0.00,,,0.00,,2013-01-18 13:53:00,
2013-01-18 08:03:00,31.0,-99.9,-100.00,South,174,6.0,12.0,-999,0.00,,,0.00,,2013-01-18 14:03:00,
2013-01-18 08:13:00,31.0,-99.9,-100.00,South,174,6.0,12.0,-999,0.00,,,0.00,,2013-01-18 14:13:00,
2013-01-18 08:23:00,31.0,-99.9,-100.00,South,174,6.0,12.0,-999,0.00,,,0.00,,2013-01-18 14:23:00,
2013-01-18 08:34:00,31.0,-99.9,-100.00,South,177,7.0,10.0,-999,0.00,,,0.00,,2013-01-18 14:34:00,
2013-01-18 08:43:00,31.0,-99.9,-100.00,South,177,7.0,10.0,-999,0.00,,,0.00,,2013-01-18 14:43:00,
2013-01-18 08:53:00,31.0,-99.9,-100.00,South,177,7.0,10.0,-999,0.00,,,0.00,,2013-01-18 14:53:00,
2013-01-18 09:03:00,32.0,-99.9,-100.00,South,180,8.0,13.0,-999,0.00,,,0.00,,2013-01-18 15:03:00,
2013-01-18 09:13:00,32.0,-99.9,-100.00,South,180,8.0,13.0,-999,0.00,,,0.00,,2013-01-18 15:13:00,
2013-01-18 09:23:00,32.0,-99.9,-100.00,South,180,8.0,13.0,-999,0.00,,,0.00,,2013-01-18 15:23:00,
2013-01-18 09:34:00,35.0,-99.9,-100.00,SSW,194,6.0,10.0,-999,0.00,,,0.00,,2013-01-18 15:34:00,
2013-01-18 09:44:00,35.0,-99.9,-100.00,SSW,194,6.0,10.0,-999,0.00,,,0.00,,2013-01-18 15:44:00,
2013-01-18 09:54:00,35.0,-99.9,-100.00,SSW,194,6.0,10.0,-999,0.00,,,0.00,,2013-01-18 15:54:00,
2013-01-18 10:03:00,36.0,-99.9,-100.00,South,190,5.0,15.0,-999,0.00,,,0.00,,2013-01-18 16:03:00,
2013-01-18 10:13:00,36.0,-99.9,-100.00,South,190,5.0,15.0,-999,0.00,,,0.00,,2013-01-18 16:13:00,
2013-01-18 10:23:00,36.0,-99.9,-100.00,South,190,5.0,15.0,-999,0.00,,,0.00,,2013-01-18 16:23:00,
2013-01-18 10:34:00,36.0,-99.9,-100.00,SW,224,9.0,15.0,-999,0.00,,,0.00,,2013-01-18 16:34:00,
2013-01-18 10:43:00,36.0,-99.9,-100.00,SW,224,9.0,15.0,-999,0.00,,,0.00,,2013-01-18 16:43:00,
2013-01-18 10:53:00,36.0,-99.9,-100.00,SW,224,9.0,15.0,-999,0.00,,,0.00,,2013-01-18 16:53:00,
2013-01-18 11:03:00,37.0,-99.9,-100.00,SSW,204,12.0,26.0,-999,0.00,,,0.00,,2013-01-18 17:03:00,
2013-01-18 11:13:00,37.0,-99.9,-100.00,SSW,204,12.0,26.0,-999,0.00,,,0.00,,2013-01-18 17:13:00,
2013-01-18 11:23:00,37.0,-99.9,-100.00,SSW,204,12.0,26.0,-999,0.00,,,0.00,,2013-01-18 17:23:00,
2013-01-18 11:34:00,39.0,-99.9,-100.00,SSW,199,12.0,24.0,-999,0.00,,,0.00,,2013-01-18 17:34:00,
2013-01-18 11:43:00,39.0,-99.9,-100.00,SSW,199,12.0,24.0,-999,0.00,,,0.00,,2013-01-18 17:43:00,
2013-01-18 11:53:00,39.0,-99.9,-100.00,SSW,199,12.0,24.0,-999,0.00,,,0.00,,2013-01-18 17:53:00,
2013-01-18 12:00:00,41.0,-99.9,-100.00,SSW,195,8.0,18.0,-999,0.00,,,0.00,,2013-01-18 18:00:00,
2013-01-18 12:04:00,40.0,-99.9,-100.00,SW,219,6.0,18.0,-999,0.00,,,0.00,,2013-01-18 18:04:00,
2013-01-18 12:13:00,40.0,-99.9,-100.00,SW,219,6.0,18.0,-999,0.00,,,0.00,,2013-01-18 18:13:00,
2013-01-18 12:24:00,40.0,-99.9,-100.00,SW,219,6.0,18.0,-999,0.00,,,0.00,,2013-01-18 18:24:00,
2013-01-18 12:34:00,41.0,-99.9,-100.00,SSW,195,8.0,18.0,-999,0.00,,,0.00,,2013-01-18 18:34:00,
2013-01-18 12:44:00,41.0,-99.9,-100.00,SSW,195,8.0,18.0,-999,0.00,,,0.00,,2013-01-18 18:44:00,
2013-01-18 12:53:00,41.0,-99.9,-100.00,SSW,195,8.0,18.0,-999,0.00,,,0.00,,2013-01-18 18:53:00,
2013-01-18 13:33:00,43.0,-99.9,-100.00,SSW,212,14.0,23.0,-999,0.00,,,0.00,,2013-01-18 19:33:00,
2013-01-18 13:43:00,43.0,-99.9,-100.00,SSW,212,14.0,23.0,-999,0.00,,,0.00,,2013-01-18 19:43:00,
2013-01-18 13:53:00,43.0,-99.9,-100.00,SSW,212,14.0,23.0,-999,0.00,,,0.00,,2013-01-18 19:53:00,
2013-01-18 14:03:00,44.0,-99.9,-100.00,SSW,211,6.0,10.0,-999,0.00,,,0.00,,2013-01-18 20:03:00,
2013-01-18 14:13:00,44.0,-99.9,-100.00,SSW,211,6.0,10.0,-999,0.00,,,0.00,,2013-01-18 20:13:00,
2013-01-18 14:23:00,44.0,-99.9,-100.00,SSW,211,6.0,10.0,-999,0.00,,,0.00,,2013-01-18 20:23:00,
2013-01-18 14:34:00,45.0,-99.9,-100.00,South,189,9.0,17.0,-999,0.00,,,0.00,,2013-01-18 20:34:00,
2013-01-18 14:43:00,45.0,-99.9,-100.00,South,189,9.0,17.0,-999,0.00,,,0.00,,2013-01-18 20:43:00,
2013-01-18 14:53:00,45.0,-99.9,-100.00,South,189,9.0,17.0,-999,0.00,,,0.00,,2013-01-18 20:53:00,
2013-01-18 15:03:00,46.0,-99.9,-100.00,SSW,199,7.0,15.0,-999,0.00,,,0.00,,2013-01-18 21:03:00,
2013-01-18 15:13:00,46.0,-99.9,-100.00,SSW,199,7.0,15.0,-999,0.00,,,0.00,,2013-01-18 21:13:00,
2013-01-18 15:23:00,46.0,-99.9,-100.00,SSW,199,7.0,15.0,-999,0.00,,,0.00,,2013-01-18 21:23:00,
2013-01-18 15:33:00,47.0,-99.9,-100.00,SSW,197,8.0,19.0,-999,0.00,,,0.00,,2013-01-18 21:33:00,
2013-01-18 15:43:00,47.0,-99.9,-100.00,SSW,197,8.0,19.0,-999,0.00,,,0.00,,2013-01-18 21:43:00,
2013-01-18 15:53:00,47.0,-99.9,-100.00,SSW,197,8.0,19.0,-999,0.00,,,0.00,,2013-01-18 21:53:00,
2013-01-18 16:03:00,47.0,-99.9,-100.00,SSW,209,14.0,21.0,-999,0.00,,,0.00,,2013-01-18 22:03:00,
2013-01-18 16:12:00,47.0,-99.9,-100.00,SSW,209,14.0,21.0,-999,0.00,,,0.00,,2013-01-18 22:12:00,
2013-01-18 16:23:00,47.0,-99.9,-100.00,SSW,209,14.0,21.0,-999,0.00,,,0.00,,2013-01-18 22:23:00,
2013-01-18 16:33:00,47.0,-99.9,-100.00,SSW,212,15.0,22.0,-999,0.00,,,0.00,,2013-01-18 22:33:00,
2013-01-18 16:43:00,47.0,-99.9,-100.00,SSW,212,15.0,22.0,-999,0.00,,,0.00,,2013-01-18 22:43:00,
2013-01-18 16:53:00,47.0,-99.9,-100.00,SSW,212,15.0,22.0,-999,0.00,,,0.00,,2013-01-18 22:53:00,
2013-01-18 17:03:00,47.0,-99.9,-100.00,SW,215,15.0,18.0,-999,0.00,,,0.00,,2013-01-18 23:03:00,
2013-01-18 17:12:00,47.0,-99.9,-100.00,SW,215,15.0,18.0,-999,0.00,,,0.00,,2013-01-18 23:12:00,
2013-01-18 17:23:00,47.0,-99.9,-100.00,SW,215,15.0,18.0,-999,0.00,,,0.00,,2013-01-18 23:23:00,
2013-01-18 17:33:00,47.0,-99.9,-100.00,SSW,213,14.0,22.0,-999,0.00,,,0.00,,2013-01-18 23:33:00,
2013-01-18 17:43:00,47.0,-99.9,-100.00,SSW,213,14.0,22.0,-999,0.00,,,0.00,,2013-01-18 23:43:00,
2013-01-18 17:53:00,47.0,-99.9,-100.00,SSW,213,14.0,22.0,-999,0.00,,,0.00,,2013-01-18 23:53:00,
2013-01-18 18:03:00,46.0,-99.9,-100.00,SSW,208,13.0,18.0,-999,0.00,,,0.00,,2013-01-19 00:03:00,
2013-01-18 18:13:00,46.0,-99.9,-100.00,SSW,208,13.0,18.0,-999,0.00,,,0.00,,2013-01-19 00:13:00,
2013-01-18 18:23:00,46.0,-99.9,-100.00,SSW,208,13.0,18.0,-999,0.00,,,0.00,,2013-01-19 00:23:00,
2013-01-18 18:33:00,46.0,-99.9,-100.00,SSW,211,11.0,15.0,-999,0.00,,,0.00,,2013-01-19 00:33:00,
2013-01-18 18:43:00,46.0,-99.9,-100.00,SSW,211,11.0,15.0,-999,0.00,,,0.00,,2013-01-19 00:43:00,
2013-01-18 18:53:00,46.0,-99.9,-100.00,SSW,211,11.0,15.0,-999,0.00,,,0.00,,2013-01-19 00:53:00,
2013-01-18 19:03:00,46.0,-99.9,-100.00,SSW,210,10.0,14.0,-999,0.00,,,0.00,,2013-01-19 01:03:00,
2013-01-18 19:13:00,46.0,-99.9,-100.00,SSW,210,10.0,14.0,-999,0.00,,,0.00,,2013-01-19 01:13:00,
2013-01-18 19:23:00,46.0,-99.9,-100.00,SSW,210,10.0,14.0,-999,0.00,,,0.00,,2013-01-19 01:23:00,
2013-01-18 19:33:00,46.0,-99.9,-100.00,SW,214,9.0,13.0,-999,0.00,,,0.00,,2013-01-19 01:33:00,
2013-01-18 19:43:00,46.0,-99.9,-100.00,SW,214,9.0,13.0,-999,0.00,,,0.00,,2013-01-19 01:43:00,
2013-01-18 19:53:00,46.0,-99.9,-100.00,SW,214,9.0,13.0,-999,0.00,,,0.00,,2013-01-19 01:53:00,
2013-01-18 20:03:00,45.0,-99.9,-100.00,SW,217,9.0,13.0,-999,0.00,,,0.00,,2013-01-19 02:03:00,
2013-01-18 20:12:00,45.0,-99.9,-100.00,SW,217,9.0,13.0,-999,0.00,,,0.00,,2013-01-19 02:12:00,
2013-01-18 20:23:00,45.0,-99.9,-100.00,SW,217,9.0,13.0,-999,0.00,,,0.00,,2013-01-19 02:23:00,
2013-01-18 20:33:00,45.0,-99.9,-100.00,SSW,213,8.0,13.0,-999,0.00,,,0.00,,2013-01-19 02:33:00,
2013-01-18 20:43:00,45.0,-99.9,-100.00,SSW,213,8.0,13.0,-999,0.00,,,0.00,,2013-01-19 02:43:00,
2013-01-18 20:53:00,45.0,-99.9,-100.00,SSW,213,8.0,13.0,-999,0.00,,,0.00,,2013-01-19 02:53:00,
2013-01-18 21:03:00,45.0,-99.9,-100.00,SSW,211,11.0,14.0,-999,0.00,,,0.00,,2013-01-19 03:03:00,
2013-01-18 21:12:00,45.0,-99.9,-100.00,SSW,211,11.0,14.0,-999,0.00,,,0.00,,2013-01-19 03:12:00,
2013-01-18 21:23:00,45.0,-99.9,-100.00,SSW,211,11.0,14.0,-999,0.00,,,0.00,,2013-01-19 03:23:00,
2013-01-18 21:33:00,44.0,-99.9,-100.00,SW,219,12.0,14.0,-999,0.00,,,0.00,,2013-01-19 03:33:00,
2013-01-18 21:44:00,44.0,-99.9,-100.00,SW,219,12.0,14.0,-999,0.00,,,0.00,,2013-01-19 03:44:00,
2013-01-18 21:53:00,44.0,-99.9,-100.00,SW,219,12.0,14.0,-999,0.00,,,0.00,,2013-01-19 03:53:00,
2013-01-18 22:03:00,44.0,-99.9,-100.00,SW,217,14.0,17.0,-999,0.00,,,0.00,,2013-01-19 04:03:00,
2013-01-18 22:12:00,44.0,-99.9,-100.00,SW,217,14.0,17.0,-999,0.00,,,0.00,,2013-01-19 04:12:00,
2013-01-18 22:22:00,44.0,-99.9,-100.00,SW,217,14.0,17.0,-999,0.00,,,0.00,,2013-01-19 04:22:00,
2013-01-18 22:33:00,44.0,-99.9,-100.00,SW,217,13.0,15.0,-999,0.00,,,0.00,,2013-01-19 04:33:00,
2013-01-18 22:43:00,44.0,-99.9,-100.00,SW,217,13.0,15.0,-999,0.00,,,0.00,,2013-01-19 04:43:00,
2013-01-18 22:53:00,44.0,-99.9,-100.00,SW,217,13.0,15.0,-999,0.00,,,0.00,,2013-01-19 04:53:00,
2013-01-18 23:00:00,42.0,-99.9,-100.00,SW,222,10.0,12.0,-999,0.00,,,0.00,,2013-01-19 05:00:00,
2013-01-18 23:04:00,42.0,-99.9,-100.00,SW,216,11.0,13.0,-999,0.00,,,-99.99,,2013-01-19 05:04:00,
2013-01-18 23:13:00,42.0,-99.9,-100.00,SW,216,11.0,13.0,-999,0.00,,,-99.99,,2013-01-19 05:13:00,
2013-01-18 23:23:00,42.0,-99.9,-100.00,SW,216,11.0,13.0,-999,0.00,,,-99.99,,2013-01-19 05:23:00,
2013-01-18 23:33:00,42.0,-99.9,-100.00,SW,222,10.0,12.0,-999,0.00,,,0.00,,2013-01-19 05:33:00,
2013-01-18 23:43:00,42.0,-99.9,-100.00,SW,222,10.0,12.0,-999,0.00,,,0.00,,2013-01-19 05:43:00,
2013-01-18 23:53:00,42.0,-99.9,-100.00,SW,222,10.0,12.0,-999,0.00,,,0.00,,2013-01-19 05:53:00,